Home > Products > Valid Products > ESP

000
FGUS64 KORN 232100
ESPORN
EXTENDED STREAMFLOW PREDICTION
NATIONAL WEATHER SERVICE RIVER FORECAST CENTER, SLIDELL, LA
100 PM CDT WED 23 2014

   DATE   CPGM7 CIRI2 NMDM7 TPTT1 CRTM7 OSGA4 MEMT1 TRPM6 HEEA4
07-24-14   27.4  24.6  15.8  19.2  18.3  12.2  12.8  24.0  20.4
07-25-14   26.4  23.7  14.4  17.7  17.4  11.1  11.8  23.2  19.8
07-26-14   25.5  22.9  13.5  16.7  16.3   9.9  10.9  22.3  18.9
07-27-14   24.4  22.0  12.6  15.9  15.7   9.0   9.8  21.2  17.9
07-28-14   23.4  20.5  11.4  14.8  15.0   8.1   9.0  20.3  17.0
07-29-14   22.6  19.4  10.0  13.5  14.0   7.2   8.1  19.5  16.1
07-30-14   21.9  18.5   9.2  12.6  12.9   6.2   7.1  18.5  15.3
07-31-14   21.2  17.7   8.4  11.9  12.0   5.1   6.1  17.4  14.3
08-01-14   20.3  16.9   7.7  11.3  11.3   4.2   5.2  16.5  13.4
08-02-14   19.6  16.2   7.1  10.6  10.6   3.4   4.4  15.6  12.5
08-03-14   18.9  15.5   6.4  10.0  10.1   2.7   3.5  14.9  11.7
08-04-14   18.2  14.8   5.7   9.4   9.6   2.1   2.9  14.1  10.9
08-05-14   17.6  14.3   5.2   8.9   9.1   1.6   2.3  13.5  10.3
08-06-14   16.8  13.8   4.7   8.5   8.6   1.1   1.8  13.0   9.7
08-07-14   16.2  13.3   4.2   8.0   8.1   0.6   1.3  12.5   9.1
08-08-14   15.6  12.9   3.8   7.6   7.7   0.1   0.8  12.0   8.5
08-09-14   15.0  12.6   3.4   7.3   7.3  -0.3   0.3  11.5   8.1
08-10-14   14.3  12.3   3.1   7.0   7.0  -0.7   0.0  11.1   7.6
08-11-14   13.5  12.0   2.9   6.7   6.7  -1.0  -0.4  10.7   7.2
08-12-14   12.9  11.7   2.6   6.4   6.4  -1.3  -0.8  10.3   6.7
08-13-14   12.3  11.4   2.3   6.1   6.1  -1.6  -1.1  10.0   6.3
08-14-14   11.9  11.2   2.1   5.9   5.9  -1.9  -1.4   9.6   5.8
08-15-14   11.7  11.0   1.9   5.6   5.7  -2.1  -1.7   9.3   5.3
08-16-14   11.6  10.9   1.8   5.5   5.5  -2.3  -2.0   9.0   5.0
08-17-14   11.5  10.8   1.7   5.4   5.4  -2.5  -2.3   8.7   4.8
08-18-14   11.4  10.7   1.6   5.3   5.2  -2.6  -2.6   8.5   4.5
08-19-14   11.2  10.7   1.5   5.2   5.2  -2.8  -2.8   8.2   4.2
08-20-14   11.0  10.6   1.5   5.2   5.1  -2.9  -3.0   8.0   4.0

   DATE   ARSA4 GEEM6 VCKM6 NTZM6 RRLL1 BTRL1 DONL1 RRVL1 NORL1
07-24-14   18.7  30.6  27.6  35.4  37.9  22.4  14.1  10.4   7.2
07-25-14   18.1  30.0  26.9  35.0  37.5  22.2  14.0  10.4   7.1
07-26-14   17.5  29.4  26.3  34.4  37.2  21.8  13.7  10.3   7.1
07-27-14   16.7  28.7  25.8  33.8  36.6  21.3  13.5  10.2   7.0
07-28-14   15.7  27.9  25.2  33.2  36.0  20.8  13.1  10.0   6.9
07-29-14   14.9  27.0  24.5  32.7  35.5  20.3  12.8   9.7   6.7
07-30-14   14.1  26.1  23.7  32.1  35.0  19.8  12.5   9.5   6.6
07-31-14   13.3  25.4  22.9  31.3  34.4  19.3  12.1   9.3   6.4
08-01-14   12.4  24.5  22.1  30.6  33.7  18.7  11.8   9.1   6.3
08-02-14   11.5  23.6  21.2  29.8  33.0  18.0  11.3   8.8   6.0
08-03-14   10.7  22.8  20.3  29.0  32.3  17.3  10.9   8.5   5.8
08-04-14    9.9  22.1  19.6  28.1  31.5  16.6  10.3   8.1   5.6
08-05-14    9.2  21.4  18.9  27.4  30.6  15.9   9.8   7.7   5.3
08-06-14    8.5  20.8  18.2  26.8  30.0  15.1   9.3   7.4   5.1
08-07-14    7.9  20.2  17.6  26.1  29.4  14.5   8.8   7.0   4.9
08-08-14    7.4  19.7  17.1  25.6  28.8  13.9   8.4   6.7   4.7
08-09-14    6.9  19.2  16.6  25.1  28.3  13.4   8.0   6.4   4.5
08-10-14    6.4  18.8  16.1  24.6  27.8  12.9   7.6   6.2   4.3
08-11-14    5.9  18.3  15.6  24.1  27.3  12.4   7.3   5.9   4.1
08-12-14    5.5  17.8  15.2  23.8  26.9  12.0   7.0   5.7   4.0
08-13-14    5.1  17.4  14.8  23.3  26.5  11.6   6.7   5.5   3.8
08-14-14    4.6  17.0  14.4  22.9  26.1  11.3   6.5   5.3   3.7
08-15-14    4.2  16.6  14.0  22.5  25.7  10.9   6.2   5.1   3.5
08-16-14    3.8  16.1  13.6  22.1  25.4  10.5   5.9   4.9   3.4
08-17-14    3.5  15.8  13.2  21.8  25.0  10.2   5.7   4.7   3.3
08-18-14    3.2  15.5  12.9  21.4  24.6   9.9   5.4   4.6   3.1
08-19-14    3.0  15.2  12.6  21.1  24.3   9.5   5.2   4.4   3.1
08-20-14    2.6  14.9  12.3  20.8  24.0   9.2   5.0   4.2   3.0

NOTE: STAGE FORECASTS ARE BASED ON FUTURE RAINFALL COVERING
THE NEXT 24 HOURS.

END ORN


$$







    US Dept of Commerce
    National Oceanic and Atmospheric Administration
    National Weather Service
    1325 East West Highway
    Silver Spring, MD 20910
    Page Author: NWS Internet Services Team
Disclaimer
Information Quality
Credits
Glossary
Privacy Policy
Freedom of Information Act (FOIA)
About Us
Career Opportunities